createdAt,value
2022-11-08T00:03:12.792Z,2.43
2022-11-08T00:08:34.792Z,2.53
2022-11-08T00:13:55.522Z,2.30
2022-11-08T00:18:58.864Z,2.70
2022-11-08T00:24:03.366Z,2.30
2022-11-08T00:29:06.276Z,2.27
2022-11-08T00:34:09.443Z,2.23
2022-11-08T00:39:14.087Z,2.40
2022-11-08T00:44:17.519Z,2.90
2022-11-08T00:49:21.008Z,3.03
2022-11-08T00:54:25.806Z,2.27
2022-11-08T00:59:29.083Z,2.50
2022-11-08T01:04:32.450Z,2.67
2022-11-08T01:09:37.235Z,2.20
2022-11-08T01:14:40.569Z,2.10
2022-11-08T01:19:43.729Z,2.47
2022-11-08T01:24:48.215Z,2.20
2022-11-08T01:29:51.260Z,1.80
2022-11-08T01:34:54.318Z,1.93
2022-11-08T01:39:58.787Z,2.33
2022-11-08T01:45:03.255Z,2.50
2022-11-08T01:50:15.576Z,2.07
2022-11-08T01:55:24.083Z,2.07
2022-11-08T02:00:27.780Z,2.33
2022-11-08T02:05:32.580Z,1.90
2022-11-08T02:10:40.143Z,2.00
2022-11-08T02:15:43.729Z,1.90
2022-11-08T02:20:56.382Z,1.80
2022-11-08T02:26:00.853Z,2.00
2022-11-08T02:31:04.031Z,1.90
2022-11-08T02:36:09.065Z,1.90
2022-11-08T02:41:13.978Z,2.13
2022-11-08T02:46:17.054Z,2.30
2022-11-08T02:51:20.269Z,1.97
2022-11-08T02:56:24.937Z,1.70
2022-11-08T03:01:28.182Z,2.10
2022-11-08T03:06:31.189Z,2.20
2022-11-08T03:11:35.635Z,2.57
2022-11-08T03:16:38.965Z,2.67
2022-11-08T03:21:42.258Z,2.43
2022-11-08T03:26:46.806Z,2.63
2022-11-08T03:31:49.789Z,2.27
2022-11-08T03:36:52.709Z,1.63
2022-11-08T03:41:57.388Z,2.03
2022-11-08T03:47:01.201Z,2.10
2022-11-08T03:52:04.484Z,1.90
2022-11-08T03:57:09.055Z,2.27
2022-11-08T04:02:12.173Z,2.10
2022-11-08T04:07:15.354Z,2.20
2022-11-08T04:12:37.827Z,2.07
2022-11-08T04:18:09.679Z,1.77
2022-11-08T04:23:12.943Z,2.47
2022-11-08T04:28:17.663Z,2.20
2022-11-08T04:33:21.179Z,1.90
2022-11-08T04:38:24.382Z,2.20
2022-11-08T04:43:28.912Z,1.70
2022-11-08T04:48:32.843Z,1.73
2022-11-08T04:53:36.311Z,1.70
2022-11-08T04:58:42.521Z,1.60
2022-11-08T05:03:47.334Z,1.60
2022-11-08T05:08:50.536Z,1.60
2022-11-08T05:13:55.540Z,2.17
2022-11-08T05:18:59.104Z,1.67
2022-11-08T05:24:02.842Z,1.63
2022-11-08T05:29:07.554Z,1.70
2022-11-08T05:34:10.909Z,1.80
2022-11-08T05:39:13.985Z,2.03
2022-11-08T05:44:18.728Z,1.60
2022-11-08T05:49:21.797Z,1.50
2022-11-08T05:54:25.014Z,1.53
2022-11-08T05:59:29.803Z,1.57
2022-11-08T06:04:32.989Z,1.40
2022-11-08T06:09:36.029Z,1.50
2022-11-08T06:14:40.395Z,1.27
2022-11-08T06:19:43.505Z,1.20
2022-11-08T06:24:46.654Z,1.40
2022-11-08T06:29:51.281Z,1.57
2022-11-08T06:34:54.505Z,1.80
2022-11-08T06:39:59.046Z,1.63
2022-11-08T06:45:03.647Z,1.47
2022-11-08T06:50:08.125Z,1.70
2022-11-08T06:55:11.301Z,1.90
2022-11-08T07:00:17.420Z,2.03
2022-11-08T07:05:20.861Z,1.43
2022-11-08T07:10:26.150Z,2.20
2022-11-08T07:15:31.682Z,1.90
2022-11-08T07:20:35.470Z,1.37
2022-11-08T07:25:38.932Z,1.87
2022-11-08T07:30:43.640Z,1.73
2022-11-08T07:35:48.402Z,1.23
2022-11-08T07:40:51.673Z,1.37
2022-11-08T07:45:57.892Z,0.97
2022-11-08T07:51:00.919Z,1.20
2022-11-08T07:56:04.332Z,1.23
2022-11-08T08:01:09.221Z,1.13
2022-11-08T08:06:12.504Z,0.97
2022-11-08T08:11:15.757Z,1.30
2022-11-08T08:16:20.560Z,1.20
2022-11-08T08:21:23.785Z,1.00
2022-11-08T08:26:27.066Z,1.20
2022-11-08T08:31:31.485Z,1.50
2022-11-08T08:36:34.561Z,1.60
2022-11-08T08:41:37.820Z,1.20
2022-11-08T08:46:42.232Z,1.30
2022-11-08T08:51:45.219Z,1.40
2022-11-08T08:56:48.289Z,1.50
2022-11-08T09:01:52.719Z,1.30
2022-11-08T09:06:56.417Z,1.40
2022-11-08T09:11:59.451Z,1.43
2022-11-08T09:17:05.488Z,1.60
2022-11-08T09:22:08.753Z,1.23
2022-11-08T09:27:12.214Z,1.30
2022-11-08T09:32:21.661Z,1.60
2022-11-08T09:37:36.286Z,1.30
2022-11-08T09:42:52.089Z,1.50
2022-11-08T09:48:04.860Z,1.33
2022-11-08T09:53:16.664Z,1.70
2022-11-08T09:58:25.113Z,1.33
2022-11-08T10:03:30.833Z,1.60
2022-11-08T10:08:41.274Z,1.80
2022-11-08T10:13:56.834Z,1.50
2022-11-08T10:19:15.877Z,1.70
2022-11-08T10:24:28.107Z,1.60
2022-11-08T10:29:36.508Z,1.47
2022-11-08T10:34:48.868Z,1.67
2022-11-08T10:39:56.772Z,1.73
2022-11-08T10:45:00.413Z,1.97
2022-11-08T10:50:15.021Z,1.40
2022-11-08T10:55:27.656Z,1.57
2022-11-08T11:00:33.295Z,1.30
2022-11-08T11:05:41.882Z,1.67
2022-11-08T11:10:46.987Z,1.70
2022-11-08T11:15:52.085Z,1.53
2022-11-08T11:21:02.182Z,1.67
2022-11-08T11:26:06.924Z,2.60
2022-11-08T11:31:18.192Z,1.50
2022-11-08T11:36:26.133Z,1.90
2022-11-08T11:41:36.366Z,1.30
2022-11-08T11:46:48.689Z,1.60
2022-11-08T11:51:55.084Z,1.53
2022-11-08T11:57:02.662Z,1.53
2022-11-08T12:02:34.624Z,1.90
2022-11-08T12:07:46.743Z,1.47
2022-11-08T12:13:03.139Z,1.42
2022-11-08T12:18:41.616Z,2.13
2022-11-08T12:24:10.251Z,1.50
2022-11-08T12:29:24.817Z,1.73
2022-11-08T12:34:35.821Z,1.30
2022-11-08T12:39:47.138Z,1.50
2022-11-08T12:45:23.209Z,1.53
2022-11-08T12:50:33.117Z,1.40
2022-11-08T12:55:38.775Z,1.57
2022-11-08T13:00:44.557Z,1.80
2022-11-08T13:05:57.991Z,2.42
2022-11-08T13:11:07.417Z,1.40
2022-11-08T13:16:15.846Z,1.50
2022-11-08T13:21:38.464Z,1.40
2022-11-08T13:26:43.857Z,1.92
2022-11-08T13:31:53.713Z,1.55
2022-11-08T13:37:22.873Z,2.03
2022-11-08T13:42:39.152Z,1.80
2022-11-08T13:47:54.647Z,2.33
2022-11-08T13:53:04.649Z,1.58
2022-11-08T13:58:30.768Z,1.80
2022-11-08T14:03:56.222Z,1.48
2022-11-08T14:09:09.213Z,1.60
2022-11-08T14:14:35.039Z,1.90
2022-11-08T14:19:40.200Z,2.22
2022-11-08T14:24:44.633Z,2.13
2022-11-08T14:30:00.107Z,1.80
2022-11-08T14:35:14.867Z,1.65
2022-11-08T14:40:23.434Z,2.88
2022-11-08T14:45:30.683Z,4.03
2022-11-08T14:50:35.907Z,3.40
2022-11-08T14:55:39.248Z,3.40
2022-11-08T15:00:45.275Z,3.63
2022-11-08T15:05:55.711Z,2.70
2022-11-08T15:11:01.740Z,2.30
2022-11-08T15:16:07.937Z,2.33
2022-11-08T15:21:27.549Z,2.13
2022-11-08T15:26:34.898Z,1.70
2022-11-08T15:31:43.417Z,1.90
2022-11-08T15:36:46.653Z,1.75
2022-11-08T15:42:01.015Z,2.57
2022-11-08T15:47:08.541Z,2.47
2022-11-08T15:52:11.943Z,2.40
2022-11-08T15:57:15.196Z,1.80
2022-11-08T16:02:26.592Z,2.20
2022-11-08T16:07:29.565Z,1.70
2022-11-08T16:12:32.927Z,1.80
2022-11-08T16:17:37.907Z,2.10
2022-11-08T16:22:41.375Z,1.80
2022-11-08T16:27:44.470Z,2.17
2022-11-08T16:32:49.500Z,2.00
2022-11-08T16:37:53.707Z,2.10
2022-11-08T16:42:56.835Z,2.87
2022-11-08T16:48:01.442Z,2.80
2022-11-08T16:53:04.550Z,1.97
2022-11-08T16:58:07.551Z,2.20
2022-11-08T17:03:21.140Z,2.00
2022-11-08T17:08:25.189Z,2.10
2022-11-08T17:13:28.291Z,3.90
2022-11-08T17:18:32.726Z,4.33
2022-11-08T17:23:35.865Z,3.50
2022-11-08T17:28:39.457Z,2.53
2022-11-08T17:33:44.767Z,2.63
2022-11-08T17:38:47.969Z,2.27
2022-11-08T17:43:51.260Z,2.23
2022-11-08T17:48:55.979Z,2.40
2022-11-08T17:53:58.986Z,2.30
2022-11-08T17:59:03.135Z,2.70
2022-11-08T18:04:07.587Z,2.40
2022-11-08T18:09:11.028Z,3.13
2022-11-08T18:14:14.322Z,2.50
2022-11-08T18:19:19.068Z,2.50
2022-11-08T18:24:22.579Z,2.70
2022-11-08T18:29:25.573Z,3.23
2022-11-08T18:34:30.291Z,2.40
2022-11-08T18:39:33.527Z,2.43
2022-11-08T18:44:36.727Z,2.23
2022-11-08T18:49:41.209Z,2.70
2022-11-08T18:54:45.393Z,2.87
2022-11-08T18:59:48.669Z,3.23
2022-11-08T19:04:53.022Z,2.50
2022-11-08T19:09:56.274Z,3.43
2022-11-08T19:14:59.927Z,3.20
2022-11-08T19:20:04.838Z,2.60
2022-11-08T19:25:09.191Z,2.30
2022-11-08T19:30:13.395Z,2.13
2022-11-08T19:35:17.985Z,2.07
2022-11-08T19:40:21.084Z,3.00
2022-11-08T19:45:24.179Z,3.80
2022-11-08T19:50:28.799Z,3.40
2022-11-08T19:55:32.015Z,3.00
2022-11-08T20:00:35.218Z,3.00
2022-11-08T20:05:39.592Z,2.40
2022-11-08T20:10:42.833Z,2.60
2022-11-08T20:15:46.003Z,3.50
2022-11-08T20:20:50.769Z,2.80
2022-11-08T20:25:53.720Z,2.70
2022-11-08T20:31:03.489Z,2.93
2022-11-08T20:36:10.090Z,2.97
2022-11-08T20:41:15.156Z,3.73
2022-11-08T20:46:20.245Z,2.57
2022-11-08T20:51:24.836Z,2.57
2022-11-08T20:56:29.207Z,2.70
2022-11-08T21:01:34.621Z,2.93
2022-11-08T21:06:39.589Z,3.00
2022-11-08T21:11:42.656Z,2.60
2022-11-08T21:17:07.215Z,3.47
2022-11-08T21:22:16.473Z,2.73
2022-11-08T21:27:19.527Z,2.50
2022-11-08T21:32:22.541Z,2.57
2022-11-08T21:37:27.008Z,2.57
2022-11-08T21:42:30.867Z,2.77
2022-11-08T21:47:36.457Z,2.53
2022-11-08T21:52:41.077Z,2.60
2022-11-08T21:57:45.473Z,3.30
2022-11-08T22:02:48.560Z,2.60
2022-11-08T22:07:53.183Z,2.33
2022-11-08T22:12:56.421Z,2.73
2022-11-08T22:18:16.390Z,2.40
2022-11-08T22:23:24.061Z,2.10
2022-11-08T22:28:27.424Z,2.23
2022-11-08T22:33:30.761Z,1.90
2022-11-08T22:38:35.087Z,2.10
2022-11-08T22:43:38.452Z,2.27
2022-11-08T22:48:42.189Z,2.17
2022-11-08T22:53:46.678Z,1.90
2022-11-08T22:58:49.818Z,2.00
2022-11-08T23:03:52.881Z,1.60
2022-11-08T23:08:57.720Z,1.80
2022-11-08T23:14:17.952Z,2.33
2022-11-08T23:19:40.128Z,2.03
2022-11-08T23:24:45.136Z,1.60
2022-11-08T23:30:06.118Z,1.93
2022-11-08T23:35:09.897Z,1.83
2022-11-08T23:40:33.477Z,2.43
2022-11-08T23:45:36.500Z,1.90
2022-11-08T23:50:39.851Z,2.07
2022-11-08T23:55:44.634Z,2.50
